sensor_id;sensor_type;location;lat;lon;timestamp;temperature;humidity
20590;DHT22;10453;50.810;12.540;2023-06-10T00:03:08;13.40;99.90
20590;DHT22;10453;50.810;12.540;2023-06-10T00:07:26;13.30;99.90
20590;DHT22;10453;50.810;12.540;2023-06-10T00:11:43;13.30;99.90
20590;DHT22;10453;50.810;12.540;2023-06-10T00:16:01;13.20;99.90
20590;DHT22;10453;50.810;12.540;2023-06-10T00:20:18;13.30;99.90
20590;DHT22;10453;50.810;12.540;2023-06-10T00:24:39;13.40;99.90
20590;DHT22;10453;50.810;12.540;2023-06-10T00:28:56;13.50;99.90
20590;DHT22;10453;50.810;12.540;2023-06-10T00:33:14;13.30;99.90
20590;DHT22;10453;50.810;12.540;2023-06-10T00:37:33;13.20;99.90
20590;DHT22;10453;50.810;12.540;2023-06-10T00:41:52;12.90;99.90
20590;DHT22;10453;50.810;12.540;2023-06-10T00:46:11;12.90;99.90
20590;DHT22;10453;50.810;12.540;2023-06-10T00:50:30;13.00;99.90
20590;DHT22;10453;50.810;12.540;2023-06-10T00:54:48;13.00;99.90
20590;DHT22;10453;50.810;12.540;2023-06-10T00:59:06;12.90;99.90
20590;DHT22;10453;50.810;12.540;2023-06-10T01:03:24;12.70;99.90
20590;DHT22;10453;50.810;12.540;2023-06-10T01:08:07;12.80;99.90
20590;DHT22;10453;50.810;12.540;2023-06-10T01:16:58;12.80;99.90
20590;DHT22;10453;50.810;12.540;2023-06-10T01:21:33;12.90;99.90
20590;DHT22;10453;50.810;12.540;2023-06-10T01:26:00;12.80;99.90
20590;DHT22;10453;50.810;12.540;2023-06-10T01:30:23;12.80;99.90
20590;DHT22;10453;50.810;12.540;2023-06-10T01:34:44;12.70;99.90
20590;DHT22;10453;50.810;12.540;2023-06-10T01:39:02;12.50;99.90
20590;DHT22;10453;50.810;12.540;2023-06-10T01:43:21;12.50;99.90
20590;DHT22;10453;50.810;12.540;2023-06-10T01:47:38;12.40;99.90
20590;DHT22;10453;50.810;12.540;2023-06-10T01:51:56;12.50;99.90
20590;DHT22;10453;50.810;12.540;2023-06-10T01:56:14;12.50;99.90
20590;DHT22;10453;50.810;12.540;2023-06-10T02:00:35;12.60;99.90
20590;DHT22;10453;50.810;12.540;2023-06-10T02:04:52;12.40;99.90
20590;DHT22;10453;50.810;12.540;2023-06-10T02:09:09;12.30;99.90
20590;DHT22;10453;50.810;12.540;2023-06-10T02:13:27;12.10;99.90
20590;DHT22;10453;50.810;12.540;2023-06-10T02:17:44;12.10;99.90
20590;DHT22;10453;50.810;12.540;2023-06-10T02:22:06;12.10;99.90
20590;DHT22;10453;50.810;12.540;2023-06-10T02:26:23;12.00;99.90
20590;DHT22;10453;50.810;12.540;2023-06-10T02:30:43;12.00;99.90
20590;DHT22;10453;50.810;12.540;2023-06-10T02:35:00;11.90;99.90
20590;DHT22;10453;50.810;12.540;2023-06-10T02:39:18;11.80;99.90
20590;DHT22;10453;50.810;12.540;2023-06-10T02:43:37;11.70;99.90
20590;DHT22;10453;50.810;12.540;2023-06-10T02:47:55;11.60;99.90
20590;DHT22;10453;50.810;12.540;2023-06-10T02:52:12;11.80;99.90
20590;DHT22;10453;50.810;12.540;2023-06-10T02:56:30;11.70;99.90
20590;DHT22;10453;50.810;12.540;2023-06-10T03:00:48;11.60;99.90
20590;DHT22;10453;50.810;12.540;2023-06-10T03:05:06;11.70;99.90
20590;DHT22;10453;50.810;12.540;2023-06-10T03:09:31;11.70;99.90
20590;DHT22;10453;50.810;12.540;2023-06-10T03:13:49;11.90;99.90
20590;DHT22;10453;50.810;12.540;2023-06-10T03:18:07;12.00;99.90
20590;DHT22;10453;50.810;12.540;2023-06-10T03:22:25;11.80;99.90
20590;DHT22;10453;50.810;12.540;2023-06-10T03:26:42;11.80;99.90
20590;DHT22;10453;50.810;12.540;2023-06-10T03:30:59;11.80;99.90
20590;DHT22;10453;50.810;12.540;2023-06-10T03:35:17;11.70;99.90
20590;DHT22;10453;50.810;12.540;2023-06-10T03:39:35;11.80;99.90
20590;DHT22;10453;50.810;12.540;2023-06-10T03:43:52;12.10;99.90
20590;DHT22;10453;50.810;12.540;2023-06-10T03:48:09;12.30;99.90
20590;DHT22;10453;50.810;12.540;2023-06-10T03:52:28;12.40;99.90
20590;DHT22;10453;50.810;12.540;2023-06-10T03:56:45;12.40;99.90
20590;DHT22;10453;50.810;12.540;2023-06-10T04:01:05;12.50;99.90
20590;DHT22;10453;50.810;12.540;2023-06-10T04:05:24;12.80;99.90
20590;DHT22;10453;50.810;12.540;2023-06-10T04:09:41;12.70;99.90
20590;DHT22;10453;50.810;12.540;2023-06-10T04:13:59;12.90;99.90
20590;DHT22;10453;50.810;12.540;2023-06-10T04:18:17;13.10;99.90
20590;DHT22;10453;50.810;12.540;2023-06-10T04:22:34;13.30;99.90
20590;DHT22;10453;50.810;12.540;2023-06-10T04:26:52;13.60;99.90
20590;DHT22;10453;50.810;12.540;2023-06-10T04:31:09;13.80;99.90
20590;DHT22;10453;50.810;12.540;2023-06-10T04:35:27;13.90;99.90
20590;DHT22;10453;50.810;12.540;2023-06-10T04:39:44;13.90;99.90
20590;DHT22;10453;50.810;12.540;2023-06-10T04:44:02;13.90;99.90
20590;DHT22;10453;50.810;12.540;2023-06-10T04:48:19;13.90;99.90
20590;DHT22;10453;50.810;12.540;2023-06-10T04:52:37;13.90;99.90
20590;DHT22;10453;50.810;12.540;2023-06-10T04:56:54;14.00;99.90
20590;DHT22;10453;50.810;12.540;2023-06-10T05:01:11;14.10;99.90
20590;DHT22;10453;50.810;12.540;2023-06-10T05:05:29;14.10;99.90
20590;DHT22;10453;50.810;12.540;2023-06-10T05:09:46;14.30;99.90
20590;DHT22;10453;50.810;12.540;2023-06-10T05:14:04;14.30;99.90
20590;DHT22;10453;50.810;12.540;2023-06-10T05:18:22;14.50;99.90
20590;DHT22;10453;50.810;12.540;2023-06-10T05:22:39;14.50;99.90
20590;DHT22;10453;50.810;12.540;2023-06-10T05:26:56;14.60;99.90
20590;DHT22;10453;50.810;12.540;2023-06-10T05:31:14;14.60;99.90
20590;DHT22;10453;50.810;12.540;2023-06-10T05:35:31;14.80;99.90
20590;DHT22;10453;50.810;12.540;2023-06-10T05:39:48;14.80;99.90
20590;DHT22;10453;50.810;12.540;2023-06-10T05:44:06;14.90;99.90
20590;DHT22;10453;50.810;12.540;2023-06-10T05:48:23;15.10;99.90
20590;DHT22;10453;50.810;12.540;2023-06-10T05:52:41;15.30;99.90
20590;DHT22;10453;50.810;12.540;2023-06-10T05:57:05;15.30;99.90
20590;DHT22;10453;50.810;12.540;2023-06-10T06:01:32;15.40;99.90
20590;DHT22;10453;50.810;12.540;2023-06-10T06:05:49;15.50;99.90
20590;DHT22;10453;50.810;12.540;2023-06-10T06:10:07;15.70;99.90
20590;DHT22;10453;50.810;12.540;2023-06-10T06:14:24;15.70;99.90
20590;DHT22;10453;50.810;12.540;2023-06-10T06:18:42;15.80;99.90
20590;DHT22;10453;50.810;12.540;2023-06-10T06:23:00;16.00;99.90
20590;DHT22;10453;50.810;12.540;2023-06-10T06:27:18;16.10;99.90
20590;DHT22;10453;50.810;12.540;2023-06-10T06:31:38;16.20;99.90
20590;DHT22;10453;50.810;12.540;2023-06-10T06:35:55;16.30;99.90
20590;DHT22;10453;50.810;12.540;2023-06-10T06:40:13;16.40;99.90
20590;DHT22;10453;50.810;12.540;2023-06-10T06:44:31;16.60;99.90
20590;DHT22;10453;50.810;12.540;2023-06-10T06:48:48;16.80;99.90
20590;DHT22;10453;50.810;12.540;2023-06-10T06:53:06;16.90;99.90
20590;DHT22;10453;50.810;12.540;2023-06-10T06:57:23;17.00;99.90
20590;DHT22;10453;50.810;12.540;2023-06-10T07:01:41;17.20;99.90
20590;DHT22;10453;50.810;12.540;2023-06-10T07:05:58;17.30;99.90
20590;DHT22;10453;50.810;12.540;2023-06-10T07:10:15;17.50;99.90
20590;DHT22;10453;50.810;12.540;2023-06-10T07:14:33;17.70;99.90
20590;DHT22;10453;50.810;12.540;2023-06-10T07:18:50;17.90;99.90
20590;DHT22;10453;50.810;12.540;2023-06-10T07:23:08;18.40;99.90
20590;DHT22;10453;50.810;12.540;2023-06-10T07:27:25;18.60;99.90
20590;DHT22;10453;50.810;12.540;2023-06-10T07:31:42;18.60;99.90
20590;DHT22;10453;50.810;12.540;2023-06-10T07:36:00;19.00;99.90
20590;DHT22;10453;50.810;12.540;2023-06-10T07:40:18;19.10;99.90
20590;DHT22;10453;50.810;12.540;2023-06-10T07:44:36;19.20;99.90
20590;DHT22;10453;50.810;12.540;2023-06-10T07:48:54;19.30;99.90
20590;DHT22;10453;50.810;12.540;2023-06-10T07:53:11;20.20;99.90
20590;DHT22;10453;50.810;12.540;2023-06-10T07:57:29;21.70;99.90
20590;DHT22;10453;50.810;12.540;2023-06-10T08:01:49;22.30;99.90
20590;DHT22;10453;50.810;12.540;2023-06-10T08:06:06;22.70;99.90
20590;DHT22;10453;50.810;12.540;2023-06-10T08:10:24;23.20;99.90
20590;DHT22;10453;50.810;12.540;2023-06-10T08:14:41;23.80;99.90
20590;DHT22;10453;50.810;12.540;2023-06-10T08:18:59;24.20;99.90
20590;DHT22;10453;50.810;12.540;2023-06-10T08:23:16;24.00;99.90
20590;DHT22;10453;50.810;12.540;2023-06-10T08:27:34;24.30;99.90
20590;DHT22;10453;50.810;12.540;2023-06-10T08:31:51;24.70;99.90
20590;DHT22;10453;50.810;12.540;2023-06-10T08:36:08;25.00;99.90
20590;DHT22;10453;50.810;12.540;2023-06-10T08:40:26;25.00;99.90
20590;DHT22;10453;50.810;12.540;2023-06-10T08:44:46;25.60;99.90
20590;DHT22;10453;50.810;12.540;2023-06-10T08:49:05;25.70;99.90
20590;DHT22;10453;50.810;12.540;2023-06-10T08:53:26;25.80;99.90
20590;DHT22;10453;50.810;12.540;2023-06-10T08:57:47;25.60;99.90
20590;DHT22;10453;50.810;12.540;2023-06-10T09:02:07;25.80;99.90
20590;DHT22;10453;50.810;12.540;2023-06-10T09:06:26;26.30;99.90
20590;DHT22;10453;50.810;12.540;2023-06-10T09:10:43;25.90;99.90
20590;DHT22;10453;50.810;12.540;2023-06-10T09:15:01;24.70;99.90
20590;DHT22;10453;50.810;12.540;2023-06-10T09:19:20;24.50;99.90
20590;DHT22;10453;50.810;12.540;2023-06-10T09:23:38;25.20;99.90
20590;DHT22;10453;50.810;12.540;2023-06-10T09:27:55;24.20;99.90
20590;DHT22;10453;50.810;12.540;2023-06-10T09:32:13;24.10;99.90
20590;DHT22;10453;50.810;12.540;2023-06-10T09:36:33;24.00;99.90
20590;DHT22;10453;50.810;12.540;2023-06-10T09:40:51;26.10;99.90
20590;DHT22;10453;50.810;12.540;2023-06-10T09:45:09;26.10;99.90
20590;DHT22;10453;50.810;12.540;2023-06-10T09:49:29;25.60;99.90
20590;DHT22;10453;50.810;12.540;2023-06-10T09:53:53;25.20;99.90
20590;DHT22;10453;50.810;12.540;2023-06-10T09:58:11;25.30;99.90
20590;DHT22;10453;50.810;12.540;2023-06-10T10:02:28;25.10;99.90
20590;DHT22;10453;50.810;12.540;2023-06-10T10:06:47;27.20;99.90
20590;DHT22;10453;50.810;12.540;2023-06-10T10:11:08;28.50;99.90
20590;DHT22;10453;50.810;12.540;2023-06-10T10:15:31;28.00;99.90
20590;DHT22;10453;50.810;12.540;2023-06-10T10:19:56;28.60;99.90
20590;DHT22;10453;50.810;12.540;2023-06-10T10:24:21;29.00;99.90
20590;DHT22;10453;50.810;12.540;2023-06-10T10:28:51;29.10;99.90
20590;DHT22;10453;50.810;12.540;2023-06-10T10:33:20;29.30;97.00
20590;DHT22;10453;50.810;12.540;2023-06-10T10:37:40;29.70;94.60
20590;DHT22;10453;50.810;12.540;2023-06-10T10:41:58;29.70;96.70
20590;DHT22;10453;50.810;12.540;2023-06-10T10:46:17;30.10;93.60
20590;DHT22;10453;50.810;12.540;2023-06-10T10:50:34;29.80;88.90
20590;DHT22;10453;50.810;12.540;2023-06-10T10:54:53;29.20;84.60
20590;DHT22;10453;50.810;12.540;2023-06-10T10:59:14;29.70;86.90
20590;DHT22;10453;50.810;12.540;2023-06-10T11:03:42;30.40;89.90
20590;DHT22;10453;50.810;12.540;2023-06-10T11:08:05;30.10;87.80
20590;DHT22;10453;50.810;12.540;2023-06-10T11:12:23;28.30;88.70
20590;DHT22;10453;50.810;12.540;2023-06-10T11:16:44;29.30;93.20
20590;DHT22;10453;50.810;12.540;2023-06-10T11:21:05;30.80;90.10
20590;DHT22;10453;50.810;12.540;2023-06-10T11:25:38;28.40;91.00
20590;DHT22;10453;50.810;12.540;2023-06-10T11:34:24;29.00;96.00
20590;DHT22;10453;50.810;12.540;2023-06-10T11:38:43;29.80;86.00
20590;DHT22;10453;50.810;12.540;2023-06-10T11:43:01;30.10;84.10
20590;DHT22;10453;50.810;12.540;2023-06-10T11:47:19;29.10;80.20
20590;DHT22;10453;50.810;12.540;2023-06-10T11:51:38;29.10;82.70
20590;DHT22;10453;50.810;12.540;2023-06-10T11:55:57;29.40;78.20
20590;DHT22;10453;50.810;12.540;2023-06-10T12:00:19;30.10;89.40
20590;DHT22;10453;50.810;12.540;2023-06-10T12:04:37;31.00;83.20
20590;DHT22;10453;50.810;12.540;2023-06-10T12:08:55;30.30;78.30
20590;DHT22;10453;50.810;12.540;2023-06-10T12:13:29;30.00;79.50
20590;DHT22;10453;50.810;12.540;2023-06-10T12:17:47;30.60;81.10
20590;DHT22;10453;50.810;12.540;2023-06-10T12:22:05;30.10;77.20
20590;DHT22;10453;50.810;12.540;2023-06-10T12:26:37;30.80;72.50
20590;DHT22;10453;50.810;12.540;2023-06-10T12:31:07;30.30;73.10
20590;DHT22;10453;50.810;12.540;2023-06-10T12:35:26;29.50;80.10
20590;DHT22;10453;50.810;12.540;2023-06-10T12:39:51;29.90;72.20
20590;DHT22;10453;50.810;12.540;2023-06-10T12:44:10;29.30;77.50
20590;DHT22;10453;50.810;12.540;2023-06-10T12:48:27;30.80;76.60
20590;DHT22;10453;50.810;12.540;2023-06-10T12:52:52;30.60;71.90
20590;DHT22;10453;50.810;12.540;2023-06-10T12:57:10;30.40;69.50
20590;DHT22;10453;50.810;12.540;2023-06-10T13:01:28;31.30;68.70
20590;DHT22;10453;50.810;12.540;2023-06-10T13:05:45;31.50;68.10
20590;DHT22;10453;50.810;12.540;2023-06-10T13:10:02;30.10;65.20
20590;DHT22;10453;50.810;12.540;2023-06-10T13:14:21;31.90;72.90
20590;DHT22;10453;50.810;12.540;2023-06-10T13:18:39;31.60;65.60
20590;DHT22;10453;50.810;12.540;2023-06-10T13:22:57;30.40;62.30
20590;DHT22;10453;50.810;12.540;2023-06-10T13:27:14;30.10;63.70
20590;DHT22;10453;50.810;12.540;2023-06-10T13:31:32;29.00;67.50
20590;DHT22;10453;50.810;12.540;2023-06-10T13:35:49;28.20;68.50
20590;DHT22;10453;50.810;12.540;2023-06-10T13:40:07;30.30;69.80
20590;DHT22;10453;50.810;12.540;2023-06-10T13:44:27;31.00;66.90
20590;DHT22;10453;50.810;12.540;2023-06-10T13:48:48;32.40;63.10
20590;DHT22;10453;50.810;12.540;2023-06-10T13:53:11;31.70;65.80
20590;DHT22;10453;50.810;12.540;2023-06-10T13:57:29;32.30;62.90
20590;DHT22;10453;50.810;12.540;2023-06-10T14:01:47;33.40;62.80
20590;DHT22;10453;50.810;12.540;2023-06-10T14:06:04;33.30;56.40
20590;DHT22;10453;50.810;12.540;2023-06-10T14:10:21;31.70;56.70
20590;DHT22;10453;50.810;12.540;2023-06-10T14:14:39;32.40;58.10
20590;DHT22;10453;50.810;12.540;2023-06-10T14:18:58;33.70;55.90
20590;DHT22;10453;50.810;12.540;2023-06-10T14:23:15;33.40;50.40
20590;DHT22;10453;50.810;12.540;2023-06-10T14:27:33;32.70;52.50
20590;DHT22;10453;50.810;12.540;2023-06-10T14:31:51;32.20;54.90
20590;DHT22;10453;50.810;12.540;2023-06-10T14:36:10;31.50;52.60
20590;DHT22;10453;50.810;12.540;2023-06-10T14:40:28;31.90;52.90
20590;DHT22;10453;50.810;12.540;2023-06-10T14:44:46;32.00;51.20
20590;DHT22;10453;50.810;12.540;2023-06-10T14:49:04;33.10;53.20
20590;DHT22;10453;50.810;12.540;2023-06-10T14:53:21;32.30;51.20
20590;DHT22;10453;50.810;12.540;2023-06-10T14:57:38;32.00;56.50
20590;DHT22;10453;50.810;12.540;2023-06-10T15:01:56;31.30;58.50
20590;DHT22;10453;50.810;12.540;2023-06-10T15:06:16;31.70;58.90
20590;DHT22;10453;50.810;12.540;2023-06-10T15:10:46;32.00;58.80
20590;DHT22;10453;50.810;12.540;2023-06-10T15:15:10;31.70;56.20
20590;DHT22;10453;50.810;12.540;2023-06-10T15:19:28;31.80;56.20
20590;DHT22;10453;50.810;12.540;2023-06-10T15:23:45;32.60;52.60
20590;DHT22;10453;50.810;12.540;2023-06-10T15:28:02;31.90;52.40
20590;DHT22;10453;50.810;12.540;2023-06-10T15:32:22;31.80;52.70
20590;DHT22;10453;50.810;12.540;2023-06-10T15:36:39;32.00;51.90
20590;DHT22;10453;50.810;12.540;2023-06-10T15:40:57;31.50;49.50
20590;DHT22;10453;50.810;12.540;2023-06-10T15:45:15;30.10;54.00
20590;DHT22;10453;50.810;12.540;2023-06-10T15:49:33;28.80;56.70
20590;DHT22;10453;50.810;12.540;2023-06-10T15:53:50;27.90;60.70
20590;DHT22;10453;50.810;12.540;2023-06-10T15:58:08;27.10;63.30
20590;DHT22;10453;50.810;12.540;2023-06-10T16:02:25;27.20;59.40
20590;DHT22;10453;50.810;12.540;2023-06-10T16:06:43;27.30;63.50
20590;DHT22;10453;50.810;12.540;2023-06-10T16:11:00;27.20;60.30
20590;DHT22;10453;50.810;12.540;2023-06-10T16:15:21;27.40;63.00
20590;DHT22;10453;50.810;12.540;2023-06-10T16:19:38;27.50;62.40
20590;DHT22;10453;50.810;12.540;2023-06-10T16:23:56;27.40;62.00
20590;DHT22;10453;50.810;12.540;2023-06-10T16:28:14;27.30;64.80
20590;DHT22;10453;50.810;12.540;2023-06-10T16:32:31;26.80;68.10
20590;DHT22;10453;50.810;12.540;2023-06-10T16:36:50;26.50;68.80
20590;DHT22;10453;50.810;12.540;2023-06-10T16:41:08;26.40;66.30
20590;DHT22;10453;50.810;12.540;2023-06-10T16:45:25;26.40;66.40
20590;DHT22;10453;50.810;12.540;2023-06-10T16:49:43;26.20;66.40
20590;DHT22;10453;50.810;12.540;2023-06-10T16:54:00;26.10;64.80
20590;DHT22;10453;50.810;12.540;2023-06-10T16:58:18;26.10;66.70
20590;DHT22;10453;50.810;12.540;2023-06-10T17:02:35;26.00;67.40
20590;DHT22;10453;50.810;12.540;2023-06-10T17:06:53;25.90;68.50
20590;DHT22;10453;50.810;12.540;2023-06-10T17:11:11;25.80;66.30
20590;DHT22;10453;50.810;12.540;2023-06-10T17:15:29;25.70;64.30
20590;DHT22;10453;50.810;12.540;2023-06-10T17:19:49;25.60;70.30
20590;DHT22;10453;50.810;12.540;2023-06-10T17:24:07;25.50;65.70
20590;DHT22;10453;50.810;12.540;2023-06-10T17:28:25;25.40;68.70
20590;DHT22;10453;50.810;12.540;2023-06-10T17:32:42;25.30;69.40
20590;DHT22;10453;50.810;12.540;2023-06-10T17:37:01;25.10;71.70
20590;DHT22;10453;50.810;12.540;2023-06-10T17:41:20;25.10;68.90
20590;DHT22;10453;50.810;12.540;2023-06-10T17:45:38;25.10;71.60
20590;DHT22;10453;50.810;12.540;2023-06-10T17:49:55;25.00;70.00
20590;DHT22;10453;50.810;12.540;2023-06-10T17:54:13;24.90;67.90
20590;DHT22;10453;50.810;12.540;2023-06-10T17:58:30;24.90;68.30
20590;DHT22;10453;50.810;12.540;2023-06-10T18:02:47;24.70;70.90
20590;DHT22;10453;50.810;12.540;2023-06-10T18:07:05;24.40;73.50
20590;DHT22;10453;50.810;12.540;2023-06-10T18:11:23;24.30;77.60
20590;DHT22;10453;50.810;12.540;2023-06-10T18:15:40;24.20;78.40
20590;DHT22;10453;50.810;12.540;2023-06-10T18:19:58;24.10;75.60
20590;DHT22;10453;50.810;12.540;2023-06-10T18:24:15;23.90;78.50
20590;DHT22;10453;50.810;12.540;2023-06-10T18:28:33;23.60;83.50
20590;DHT22;10453;50.810;12.540;2023-06-10T18:32:51;23.40;90.10
20590;DHT22;10453;50.810;12.540;2023-06-10T18:37:08;23.20;90.90
20590;DHT22;10453;50.810;12.540;2023-06-10T18:41:27;22.90;99.20
20590;DHT22;10453;50.810;12.540;2023-06-10T18:45:44;22.80;99.90
20590;DHT22;10453;50.810;12.540;2023-06-10T18:50:03;22.50;99.90
20590;DHT22;10453;50.810;12.540;2023-06-10T18:54:20;22.40;99.90
20590;DHT22;10453;50.810;12.540;2023-06-10T18:58:38;22.40;99.90
20590;DHT22;10453;50.810;12.540;2023-06-10T19:02:56;22.00;99.90
20590;DHT22;10453;50.810;12.540;2023-06-10T19:07:13;21.60;99.90
20590;DHT22;10453;50.810;12.540;2023-06-10T19:11:34;21.50;99.90
20590;DHT22;10453;50.810;12.540;2023-06-10T19:15:52;21.30;99.90
20590;DHT22;10453;50.810;12.540;2023-06-10T19:20:10;21.00;99.90
20590;DHT22;10453;50.810;12.540;2023-06-10T19:24:29;20.90;99.90
20590;DHT22;10453;50.810;12.540;2023-06-10T19:28:47;20.40;99.90
20590;DHT22;10453;50.810;12.540;2023-06-10T19:33:05;20.30;99.90
20590;DHT22;10453;50.810;12.540;2023-06-10T19:37:26;19.80;99.90
20590;DHT22;10453;50.810;12.540;2023-06-10T19:41:44;19.60;99.90
20590;DHT22;10453;50.810;12.540;2023-06-10T19:46:01;19.50;99.90
20590;DHT22;10453;50.810;12.540;2023-06-10T19:50:19;19.20;99.90
20590;DHT22;10453;50.810;12.540;2023-06-10T19:54:37;18.80;99.90
20590;DHT22;10453;50.810;12.540;2023-06-10T19:58:55;18.50;99.90
20590;DHT22;10453;50.810;12.540;2023-06-10T20:03:12;18.40;99.90
20590;DHT22;10453;50.810;12.540;2023-06-10T20:07:30;18.10;99.90
20590;DHT22;10453;50.810;12.540;2023-06-10T20:11:48;18.00;99.90
20590;DHT22;10453;50.810;12.540;2023-06-10T20:16:06;17.70;99.90
20590;DHT22;10453;50.810;12.540;2023-06-10T20:20:24;17.50;99.90
20590;DHT22;10453;50.810;12.540;2023-06-10T20:24:42;17.20;99.90
20590;DHT22;10453;50.810;12.540;2023-06-10T20:29:01;17.10;99.90
20590;DHT22;10453;50.810;12.540;2023-06-10T20:33:19;16.90;99.90
20590;DHT22;10453;50.810;12.540;2023-06-10T20:37:36;16.80;99.90
20590;DHT22;10453;50.810;12.540;2023-06-10T20:41:54;16.80;99.90
20590;DHT22;10453;50.810;12.540;2023-06-10T20:46:12;16.70;99.90
20590;DHT22;10453;50.810;12.540;2023-06-10T20:50:30;16.60;99.90
20590;DHT22;10453;50.810;12.540;2023-06-10T20:54:49;16.40;99.90
20590;DHT22;10453;50.810;12.540;2023-06-10T20:59:06;16.40;99.90
20590;DHT22;10453;50.810;12.540;2023-06-10T21:03:25;16.20;99.90
20590;DHT22;10453;50.810;12.540;2023-06-10T21:07:42;16.20;99.90
20590;DHT22;10453;50.810;12.540;2023-06-10T21:12:01;16.20;99.90
20590;DHT22;10453;50.810;12.540;2023-06-10T21:16:19;16.20;99.90
20590;DHT22;10453;50.810;12.540;2023-06-10T21:20:37;16.10;99.90
20590;DHT22;10453;50.810;12.540;2023-06-10T21:24:54;16.10;99.90
20590;DHT22;10453;50.810;12.540;2023-06-10T21:29:11;16.00;99.90
20590;DHT22;10453;50.810;12.540;2023-06-10T21:33:29;15.90;99.90
20590;DHT22;10453;50.810;12.540;2023-06-10T21:37:48;15.80;99.90
20590;DHT22;10453;50.810;12.540;2023-06-10T21:42:05;15.90;99.90
20590;DHT22;10453;50.810;12.540;2023-06-10T21:46:23;15.70;99.90
20590;DHT22;10453;50.810;12.540;2023-06-10T21:50:43;15.70;99.90
20590;DHT22;10453;50.810;12.540;2023-06-10T21:55:00;15.50;99.90
20590;DHT22;10453;50.810;12.540;2023-06-10T21:59:19;15.20;99.90
20590;DHT22;10453;50.810;12.540;2023-06-10T22:03:39;15.20;99.90
20590;DHT22;10453;50.810;12.540;2023-06-10T22:07:56;15.20;99.90
20590;DHT22;10453;50.810;12.540;2023-06-10T22:12:14;15.20;99.90
20590;DHT22;10453;50.810;12.540;2023-06-10T22:16:32;15.00;99.90
20590;DHT22;10453;50.810;12.540;2023-06-10T22:20:49;14.90;99.90
20590;DHT22;10453;50.810;12.540;2023-06-10T22:25:07;14.70;99.90
20590;DHT22;10453;50.810;12.540;2023-06-10T22:29:24;14.60;99.90
20590;DHT22;10453;50.810;12.540;2023-06-10T22:33:42;14.50;99.90
20590;DHT22;10453;50.810;12.540;2023-06-10T22:37:59;14.50;99.90
20590;DHT22;10453;50.810;12.540;2023-06-10T22:42:18;14.40;99.90
20590;DHT22;10453;50.810;12.540;2023-06-10T22:46:35;14.50;99.90
20590;DHT22;10453;50.810;12.540;2023-06-10T22:50:53;14.30;99.90
20590;DHT22;10453;50.810;12.540;2023-06-10T22:55:10;14.20;99.90
20590;DHT22;10453;50.810;12.540;2023-06-10T22:59:28;14.10;99.90
20590;DHT22;10453;50.810;12.540;2023-06-10T23:03:46;14.00;99.90
20590;DHT22;10453;50.810;12.540;2023-06-10T23:08:03;13.80;99.90
20590;DHT22;10453;50.810;12.540;2023-06-10T23:12:20;13.80;99.90
20590;DHT22;10453;50.810;12.540;2023-06-10T23:16:38;13.80;99.90
20590;DHT22;10453;50.810;12.540;2023-06-10T23:21:02;13.70;99.90
20590;DHT22;10453;50.810;12.540;2023-06-10T23:25:20;13.60;99.90
20590;DHT22;10453;50.810;12.540;2023-06-10T23:29:38;13.60;99.90
20590;DHT22;10453;50.810;12.540;2023-06-10T23:34:15;13.60;99.90
20590;DHT22;10453;50.810;12.540;2023-06-10T23:38:32;13.50;99.90
20590;DHT22;10453;50.810;12.540;2023-06-10T23:42:50;13.40;99.90
20590;DHT22;10453;50.810;12.540;2023-06-10T23:47:08;13.40;99.90
20590;DHT22;10453;50.810;12.540;2023-06-10T23:51:25;13.40;99.90
20590;DHT22;10453;50.810;12.540;2023-06-10T23:55:43;13.40;99.90
